createdAt,value
2023-02-05T00:00:07.015Z,0.06
2023-02-05T00:02:07.348Z,0.06
2023-02-05T00:04:06.805Z,0.06
2023-02-05T00:06:06.679Z,0.06
2023-02-05T00:08:05.566Z,0.06
2023-02-05T00:10:06.372Z,0.06
2023-02-05T00:12:05.534Z,0.06
2023-02-05T00:14:06.029Z,0.06
2023-02-05T00:16:06.304Z,0.06
2023-02-05T00:18:06.654Z,0.06
2023-02-05T00:20:05.624Z,0.06
2023-02-05T00:22:06.606Z,0.06
2023-02-05T00:24:06.157Z,0.06
2023-02-05T00:26:06.909Z,0.06
2023-02-05T00:28:05.528Z,0.06
2023-02-05T00:30:05.887Z,0.06
2023-02-05T00:32:06.709Z,0.06
2023-02-05T00:34:05.655Z,0.06
2023-02-05T00:36:06.796Z,0.06
2023-02-05T00:38:05.868Z,0.06
2023-02-05T00:40:05.908Z,0.06
2023-02-05T00:42:05.613Z,0.06
2023-02-05T00:44:05.843Z,0.06
2023-02-05T00:46:06.100Z,0.06
2023-02-05T00:48:06.200Z,0.06
2023-02-05T00:50:05.235Z,0.06
2023-02-05T00:52:05.861Z,0.06
2023-02-05T00:54:05.914Z,0.06
2023-02-05T00:56:06.603Z,0.06
2023-02-05T00:58:05.629Z,0.06
2023-02-05T01:00:08.257Z,0.06
2023-02-05T01:02:09.645Z,0.06
2023-02-05T01:04:06.250Z,0.06
2023-02-05T01:06:05.755Z,0.06
2023-02-05T01:08:05.843Z,0.06
2023-02-05T01:10:06.396Z,0.06
2023-02-05T01:12:05.663Z,0.06
2023-02-05T01:14:05.222Z,0.06
2023-02-05T01:16:06.760Z,0.06
2023-02-05T01:18:05.767Z,0.06
2023-02-05T01:20:05.826Z,0.06
2023-02-05T01:22:05.661Z,0.06
2023-02-05T01:24:06.245Z,0.06
2023-02-05T01:26:06.214Z,0.06
2023-02-05T01:28:05.002Z,0.06
2023-02-05T01:30:05.925Z,0.06
2023-02-05T01:32:06.787Z,0.06
2023-02-05T01:34:05.861Z,0.06
2023-02-05T01:36:05.889Z,0.06
2023-02-05T01:38:06.017Z,0.06
2023-02-05T01:40:05.528Z,0.06
2023-02-05T01:42:05.874Z,0.06
2023-02-05T01:44:05.422Z,0.06
2023-02-05T01:46:07.147Z,0.06
2023-02-05T01:48:05.773Z,0.06
2023-02-05T01:50:05.948Z,0.06
2023-02-05T01:52:05.462Z,0.06
2023-02-05T01:54:06.015Z,0.06
2023-02-05T01:56:05.754Z,0.06
2023-02-05T01:58:05.717Z,0.06
2023-02-05T02:00:05.965Z,0.06
2023-02-05T02:02:10.059Z,0.06
2023-02-05T02:04:05.603Z,0.06
2023-02-05T02:06:06.888Z,0.06
2023-02-05T02:08:06.341Z,0.06
2023-02-05T02:10:05.326Z,0.06
2023-02-05T02:12:05.941Z,0.06
2023-02-05T02:14:05.133Z,0.06
2023-02-05T02:16:07.126Z,0.06
2023-02-05T02:18:05.719Z,0.06
2023-02-05T02:20:05.816Z,0.06
2023-02-05T02:22:05.828Z,0.06
2023-02-05T02:24:06.353Z,0.06
2023-02-05T02:26:05.891Z,0.06
2023-02-05T02:28:06.177Z,0.06
2023-02-05T02:30:05.730Z,0.06
2023-02-05T02:32:06.819Z,0.06
2023-02-05T02:34:05.469Z,0.06
2023-02-05T02:36:06.876Z,0.06
2023-02-05T02:38:05.745Z,0.06
2023-02-05T02:40:06.058Z,0.06
2023-02-05T02:42:05.638Z,0.06
2023-02-05T02:44:05.252Z,0.06
2023-02-05T02:46:06.403Z,0.06
2023-02-05T02:48:05.522Z,0.06
2023-02-05T02:50:05.989Z,0.06
2023-02-05T02:52:05.613Z,0.06
2023-02-05T02:54:06.058Z,0.06
2023-02-05T02:56:06.398Z,0.06
2023-02-05T02:58:06.003Z,0.06
2023-02-05T03:00:05.671Z,0.06
2023-02-05T03:02:16.328Z,0.06
2023-02-05T03:04:05.360Z,0.06
2023-02-05T03:06:07.182Z,0.06
2023-02-05T03:08:06.035Z,0.06
2023-02-05T03:10:05.541Z,0.06
2023-02-05T03:12:05.235Z,0.06
2023-02-05T03:14:05.908Z,0.06
2023-02-05T03:16:06.217Z,0.06
2023-02-05T03:18:06.330Z,0.06
2023-02-05T03:20:04.980Z,0.06
2023-02-05T03:22:05.848Z,0.06
2023-02-05T03:24:05.338Z,0.06
2023-02-05T03:26:07.025Z,0.06
2023-02-05T03:28:06.124Z,0.06
2023-02-05T03:30:05.692Z,0.06
2023-02-05T03:32:06.732Z,0.06
2023-02-05T03:34:05.231Z,0.06
2023-02-05T03:36:06.551Z,0.06
2023-02-05T03:38:05.740Z,0.06
2023-02-05T03:40:05.188Z,0.06
2023-02-05T03:42:05.423Z,0.06
2023-02-05T03:44:05.371Z,0.06
2023-02-05T03:46:06.695Z,0.06
2023-02-05T03:48:05.359Z,0.06
2023-02-05T03:50:05.875Z,0.06
2023-02-05T03:52:05.664Z,0.06
2023-02-05T03:54:05.491Z,0.06
2023-02-05T03:56:06.236Z,0.06
2023-02-05T03:58:05.378Z,0.06
2023-02-05T04:00:09.048Z,0.06
2023-02-05T04:02:13.202Z,0.06
2023-02-05T04:04:05.919Z,0.06
2023-02-05T04:06:05.877Z,0.06
2023-02-05T04:08:05.988Z,0.06
2023-02-05T04:10:05.428Z,0.06
2023-02-05T04:12:05.796Z,0.06
2023-02-05T04:14:05.389Z,0.06
2023-02-05T04:16:06.540Z,0.06
2023-02-05T04:18:05.564Z,0.06
2023-02-05T04:20:05.747Z,0.06
2023-02-05T04:22:05.559Z,0.06
2023-02-05T04:24:06.242Z,0.06
2023-02-05T04:26:05.709Z,0.06
2023-02-05T04:28:05.352Z,0.06
2023-02-05T04:30:05.900Z,0.06
2023-02-05T04:32:05.930Z,0.06
2023-02-05T04:34:05.794Z,0.06
2023-02-05T04:36:05.875Z,0.06
2023-02-05T04:38:06.035Z,0.06
2023-02-05T04:40:05.469Z,0.06
2023-02-05T04:42:05.976Z,0.06
2023-02-05T04:44:05.538Z,0.06
2023-02-05T04:46:06.474Z,0.06
2023-02-05T04:48:05.533Z,0.06
2023-02-05T04:50:05.879Z,0.06
2023-02-05T04:52:05.474Z,0.06
2023-02-05T04:54:05.915Z,0.06
2023-02-05T04:56:06.116Z,0.06
2023-02-05T04:58:05.852Z,0.06
2023-02-05T05:00:07.164Z,0.06
2023-02-05T05:02:11.649Z,0.06
2023-02-05T05:04:06.076Z,0.06
2023-02-05T05:06:05.620Z,0.06
2023-02-05T05:08:05.996Z,0.06
2023-02-05T05:10:05.527Z,0.06
2023-02-05T05:12:05.911Z,0.06
2023-02-05T05:14:05.662Z,0.06
2023-02-05T05:16:07.094Z,0.06
2023-02-05T05:18:05.729Z,0.06
2023-02-05T05:20:06.381Z,0.06
2023-02-05T05:22:06.421Z,0.06
2023-02-05T05:24:05.868Z,0.06
2023-02-05T05:26:05.787Z,0.06
2023-02-05T05:28:06.002Z,0.06
2023-02-05T05:30:05.799Z,0.06
2023-02-05T05:32:06.508Z,0.06
2023-02-05T05:34:05.719Z,0.06
2023-02-05T05:36:05.804Z,0.06
2023-02-05T05:38:06.089Z,0.06
2023-02-05T05:40:05.518Z,0.06
2023-02-05T05:42:06.264Z,0.06
2023-02-05T05:44:05.633Z,0.06
2023-02-05T05:46:06.929Z,0.06
2023-02-05T05:48:06.030Z,0.06
2023-02-05T05:50:05.378Z,0.06
2023-02-05T05:52:06.180Z,0.06
2023-02-05T05:54:05.361Z,0.06
2023-02-05T05:56:06.340Z,0.06
2023-02-05T05:58:07.038Z,0.06
2023-02-05T06:00:06.185Z,0.06
2023-02-05T06:02:08.649Z,0.06
2023-02-05T06:04:05.973Z,0.06
2023-02-05T06:06:09.277Z,0.06
2023-02-05T06:08:05.930Z,0.06
2023-02-05T06:10:06.304Z,0.06
2023-02-05T06:12:05.888Z,0.06
2023-02-05T06:14:05.638Z,0.06
2023-02-05T06:16:06.742Z,0.06
2023-02-05T06:18:06.234Z,0.06
2023-02-05T06:20:05.621Z,0.06
2023-02-05T06:22:06.521Z,0.06
2023-02-05T06:24:05.766Z,0.06
2023-02-05T06:26:06.259Z,0.06
2023-02-05T06:28:05.334Z,0.06
2023-02-05T06:30:05.989Z,0.06
2023-02-05T06:32:06.632Z,0.06
2023-02-05T06:34:08.248Z,0.06
2023-02-05T06:36:05.980Z,0.06
2023-02-05T06:38:21.192Z,0.06
2023-02-05T06:40:05.464Z,0.06
2023-02-05T06:42:05.876Z,0.06
2023-02-05T06:44:05.634Z,0.06
2023-02-05T06:46:06.924Z,0.06
2023-02-05T06:48:06.179Z,0.06
2023-02-05T06:50:05.265Z,0.06
2023-02-05T06:52:05.961Z,0.06
2023-02-05T06:54:08.003Z,0.06
2023-02-05T06:56:06.090Z,0.06
2023-02-05T06:58:05.369Z,0.06
2023-02-05T07:00:05.913Z,0.06
2023-02-05T07:02:09.150Z,0.06
2023-02-05T07:04:05.657Z,0.06
2023-02-05T07:06:06.749Z,0.06
2023-02-05T07:08:05.773Z,0.06
2023-02-05T07:10:05.934Z,0.06
2023-02-05T07:12:05.429Z,0.06
2023-02-05T07:14:06.084Z,0.06
2023-02-05T07:16:06.245Z,0.06
2023-02-05T07:18:06.105Z,0.06
2023-02-05T07:20:05.272Z,0.06
2023-02-05T07:22:06.079Z,0.06
2023-02-05T07:24:05.610Z,0.06
2023-02-05T07:26:06.488Z,0.06
2023-02-05T07:28:05.555Z,0.06
2023-02-05T07:30:06.336Z,0.06
2023-02-05T07:32:08.696Z,0.06
2023-02-05T07:34:06.078Z,0.06
2023-02-05T07:36:06.364Z,0.06
2023-02-05T07:38:06.791Z,0.06
2023-02-05T07:40:05.612Z,0.06
2023-02-05T07:42:05.227Z,0.06
2023-02-05T07:44:05.959Z,0.06
2023-02-05T07:46:05.812Z,0.06
2023-02-05T07:48:05.922Z,0.06
2023-02-05T07:50:05.374Z,0.06
2023-02-05T07:52:06.018Z,0.06
2023-02-05T07:54:05.295Z,0.06
2023-02-05T07:56:05.928Z,0.06
2023-02-05T07:58:05.274Z,0.06
2023-02-05T08:00:05.720Z,0.06
2023-02-05T08:02:08.623Z,0.06
2023-02-05T08:04:08.442Z,0.06
2023-02-05T08:06:06.442Z,0.06
2023-02-05T08:08:05.745Z,0.06
2023-02-05T08:10:05.136Z,0.06
2023-02-05T08:12:06.647Z,0.06
2023-02-05T08:14:05.912Z,0.06
2023-02-05T08:16:06.393Z,0.06
2023-02-05T08:18:05.618Z,0.06
2023-02-05T08:20:09.072Z,0.06
2023-02-05T08:22:05.542Z,0.06
2023-02-05T08:24:05.965Z,0.06
2023-02-05T08:26:05.432Z,0.06
2023-02-05T08:28:06.093Z,0.06
2023-02-05T08:30:05.602Z,0.06
2023-02-05T08:32:06.190Z,0.06
2023-02-05T08:34:05.108Z,0.06
2023-02-05T08:36:06.452Z,0.06
2023-02-05T08:38:05.478Z,0.06
2023-02-05T08:40:05.976Z,0.06
2023-02-05T08:42:08.340Z,0.06
2023-02-05T08:44:06.015Z,0.06
2023-02-05T08:46:05.765Z,0.06
2023-02-05T08:48:19.617Z,0.06
2023-02-05T08:50:05.915Z,0.06
2023-02-05T08:52:05.508Z,0.06
2023-02-05T08:54:05.875Z,0.06
2023-02-05T08:56:05.842Z,0.06
2023-02-05T08:58:06.067Z,0.06
2023-02-05T09:00:05.734Z,0.06
2023-02-05T09:02:09.097Z,0.06
2023-02-05T09:04:09.276Z,0.06
2023-02-05T09:06:16.451Z,0.06
2023-02-05T09:08:05.860Z,0.06
2023-02-05T09:10:05.736Z,0.06
2023-02-05T09:12:06.371Z,0.06
2023-02-05T09:14:05.815Z,0.06
2023-02-05T09:16:05.401Z,0.06
2023-02-05T09:18:06.172Z,0.06
2023-02-05T09:20:05.559Z,0.06
2023-02-05T09:22:06.155Z,0.06
2023-02-05T09:24:05.419Z,0.06
2023-02-05T09:26:06.346Z,0.06
2023-02-05T09:28:05.465Z,0.06
2023-02-05T09:30:05.837Z,0.06
2023-02-05T09:32:07.436Z,0.06
2023-02-05T09:34:08.871Z,0.06
2023-02-05T09:36:05.400Z,0.06
2023-02-05T09:38:05.622Z,0.06
2023-02-05T09:41:14.010Z,0.06
2023-02-05T09:44:06.470Z,0.06
2023-02-05T09:46:05.704Z,0.06
2023-02-05T09:48:06.323Z,0.06
2023-02-05T09:50:05.871Z,0.06
2023-02-05T09:52:05.794Z,0.06
2023-02-05T09:54:06.010Z,0.06
2023-02-05T09:56:06.208Z,0.06
2023-02-05T09:58:08.167Z,0.06
2023-02-05T10:00:05.353Z,0.06
2023-02-05T10:02:07.017Z,0.06
2023-02-05T10:04:09.242Z,0.06
2023-02-05T10:06:06.463Z,0.06
2023-02-05T10:08:05.865Z,0.06
2023-02-05T10:10:06.475Z,0.06
2023-02-05T10:12:06.536Z,0.06
2023-02-05T10:14:05.575Z,0.06
2023-02-05T10:16:08.814Z,0.06
2023-02-05T10:18:05.754Z,3.31
2023-02-05T10:20:07.347Z,3.31
2023-02-05T10:22:05.533Z,3.31
2023-02-05T10:24:05.770Z,0.09
2023-02-05T10:26:08.355Z,0.09
2023-02-05T10:28:06.424Z,0.09
2023-02-05T10:30:05.611Z,0.09
2023-02-05T10:32:09.915Z,0.09
2023-02-05T10:34:05.640Z,0.09
2023-02-05T10:36:06.671Z,0.09
2023-02-05T10:38:09.330Z,0.09
2023-02-05T10:40:07.867Z,0.09
2023-02-05T10:42:08.465Z,0.09
2023-02-05T10:44:05.874Z,0.09
2023-02-05T10:46:05.403Z,0.09
2023-02-05T10:48:06.140Z,0.09
2023-02-05T10:50:07.462Z,0.09
2023-02-05T10:52:06.307Z,0.09
2023-02-05T10:54:05.220Z,0.09
2023-02-05T10:56:06.227Z,0.09
2023-02-05T10:58:05.100Z,0.09
2023-02-05T11:00:05.594Z,0.09
2023-02-05T11:02:09.811Z,0.09
2023-02-05T11:04:05.876Z,0.09
2023-02-05T11:06:07.437Z,0.09
2023-02-05T11:08:05.192Z,0.09
2023-02-05T11:10:05.898Z,0.09
2023-02-05T11:12:06.765Z,0.09
2023-02-05T11:14:05.605Z,0.09
2023-02-05T11:16:06.006Z,0.09
2023-02-05T11:18:05.661Z,0.09
2023-02-05T11:20:05.942Z,0.09
2023-02-05T11:22:05.608Z,0.09
2023-02-05T11:24:06.070Z,0.09
2023-02-05T11:26:05.652Z,0.09
2023-02-05T11:28:06.104Z,0.09
2023-02-05T11:30:05.346Z,0.09
2023-02-05T11:32:36.588Z,0.28
2023-02-05T11:34:07.032Z,0.28
2023-02-05T11:36:05.739Z,0.07
2023-02-05T11:38:06.756Z,0.06
2023-02-05T11:40:05.669Z,0.06
2023-02-05T11:42:06.732Z,0.06
2023-02-05T11:44:05.684Z,0.05
2023-02-05T11:46:06.521Z,0.05
2023-02-05T11:48:06.176Z,0.05
2023-02-05T11:50:06.138Z,0.05
2023-02-05T11:52:06.037Z,0.05
2023-02-05T11:54:06.256Z,0.05
2023-02-05T11:56:05.602Z,0.04
2023-02-05T11:58:07.299Z,0.04
2023-02-05T12:00:17.453Z,0.04
2023-02-05T12:02:09.470Z,0.04
2023-02-05T12:04:06.790Z,0.04
2023-02-05T12:06:05.773Z,0.04
2023-02-05T12:08:06.256Z,0.04
2023-02-05T12:10:06.001Z,0.04
2023-02-05T12:12:05.984Z,0.04
2023-02-05T12:14:08.269Z,0.04
2023-02-05T12:16:05.915Z,0.04
2023-02-05T12:18:06.693Z,0.04
2023-02-05T12:20:05.632Z,0.04
2023-02-05T12:22:06.537Z,0.04
2023-02-05T12:24:05.771Z,0.04
2023-02-05T12:26:05.974Z,0.04
2023-02-05T12:28:06.008Z,0.04
2023-02-05T12:30:05.562Z,0.04
2023-02-05T12:32:08.497Z,0.04
2023-02-05T12:34:05.544Z,0.04
2023-02-05T12:36:06.484Z,0.04
2023-02-05T12:38:05.871Z,0.04
2023-02-05T12:40:14.531Z,0.04
2023-02-05T12:42:05.520Z,0.04
2023-02-05T12:44:05.089Z,0.04
2023-02-05T12:46:05.927Z,0.04
2023-02-05T12:48:05.632Z,0.04
2023-02-05T12:50:07.622Z,0.04
2023-02-05T12:52:05.752Z,0.04
2023-02-05T12:54:06.077Z,0.04
2023-02-05T12:56:08.266Z,0.04
2023-02-05T12:58:05.913Z,0.04
2023-02-05T13:00:05.489Z,0.04
2023-02-05T13:02:09.762Z,0.04
2023-02-05T13:04:06.397Z,0.04
2023-02-05T13:06:06.624Z,0.04
2023-02-05T13:08:06.099Z,0.04
2023-02-05T13:10:05.673Z,0.04
2023-02-05T13:12:06.246Z,0.04
2023-02-05T13:14:05.565Z,0.04
2023-02-05T13:16:06.558Z,0.04
2023-02-05T13:18:05.781Z,0.04
2023-02-05T13:20:05.831Z,0.04
2023-02-05T13:22:05.134Z,0.04
2023-02-05T13:24:05.927Z,0.04
2023-02-05T13:26:12.784Z,0.04
2023-02-05T13:28:05.635Z,0.04
2023-02-05T13:30:06.095Z,0.04
2023-02-05T13:32:22.085Z,0.04
2023-02-05T13:34:18.709Z,0.04
2023-02-05T13:36:05.188Z,0.04
2023-02-05T13:38:05.954Z,0.04
2023-02-05T13:40:09.530Z,0.04
2023-02-05T13:42:06.139Z,0.04
2023-02-05T13:44:05.718Z,0.04
2023-02-05T13:46:06.879Z,0.04
2023-02-05T13:48:05.754Z,0.04
2023-02-05T13:50:05.824Z,0.04
2023-02-05T13:52:05.633Z,0.04
2023-02-05T13:54:08.190Z,0.04
2023-02-05T13:56:05.600Z,0.04
2023-02-05T13:58:05.724Z,0.04
2023-02-05T14:00:08.842Z,0.04
2023-02-05T14:02:09.968Z,0.04
2023-02-05T14:04:06.118Z,0.04
2023-02-05T14:06:08.673Z,0.04
2023-02-05T14:08:05.697Z,0.04
2023-02-05T14:10:05.288Z,0.04
2023-02-05T14:12:08.394Z,0.04
2023-02-05T14:14:06.048Z,0.04
2023-02-05T14:16:06.198Z,0.04
2023-02-05T14:18:09.436Z,0.04
2023-02-05T14:20:05.388Z,0.04
2023-02-05T14:22:06.209Z,0.04
2023-02-05T14:24:05.565Z,0.04
2023-02-05T14:26:06.643Z,0.04
2023-02-05T14:28:05.693Z,0.04
2023-02-05T14:30:05.396Z,0.04
2023-02-05T14:32:08.975Z,0.04
2023-02-05T14:34:13.952Z,0.04
2023-02-05T14:36:15.266Z,0.04
2023-02-05T14:38:05.270Z,0.04
2023-02-05T14:40:05.769Z,0.04
2023-02-05T14:42:05.146Z,0.04
2023-02-05T14:44:17.926Z,0.04
2023-02-05T14:46:05.996Z,0.04
2023-02-05T14:48:06.273Z,0.04
2023-02-05T14:50:05.495Z,0.04
2023-02-05T14:52:06.191Z,0.04
2023-02-05T14:54:05.559Z,0.04
2023-02-05T14:56:06.434Z,0.04
2023-02-05T14:58:05.487Z,0.04
2023-02-05T15:00:07.298Z,0.04
2023-02-05T15:02:11.441Z,0.04
2023-02-05T15:04:06.178Z,0.04
2023-02-05T15:06:05.457Z,0.04
2023-02-05T15:08:05.635Z,0.04
2023-02-05T15:10:05.427Z,0.04
2023-02-05T15:12:05.700Z,0.04
2023-02-05T15:14:05.468Z,0.04
2023-02-05T15:16:07.528Z,0.04
2023-02-05T15:18:05.552Z,0.04
2023-02-05T15:20:06.000Z,0.04
2023-02-05T15:22:05.760Z,0.04
2023-02-05T15:24:06.167Z,0.04
2023-02-05T15:26:05.621Z,0.04
2023-02-05T15:28:05.630Z,0.04
2023-02-05T15:30:08.680Z,0.04
2023-02-05T15:32:06.200Z,0.04
2023-02-05T15:34:05.664Z,0.04
2023-02-05T15:36:05.384Z,0.04
2023-02-05T15:38:06.223Z,0.04
2023-02-05T15:40:05.505Z,0.04
2023-02-05T15:42:06.082Z,0.04
2023-02-05T15:44:05.692Z,0.04
2023-02-05T15:46:06.660Z,0.04
2023-02-05T15:48:05.993Z,0.04
2023-02-05T15:50:05.320Z,0.03
2023-02-05T15:52:06.386Z,0.03
2023-02-05T15:54:05.630Z,0.03
2023-02-05T15:56:05.072Z,0.04
2023-02-05T15:58:05.738Z,0.04
2023-02-05T16:00:05.912Z,0.04
2023-02-05T16:02:10.124Z,0.04
2023-02-05T16:04:05.716Z,0.04
2023-02-05T16:06:06.619Z,0.04
2023-02-05T16:08:05.735Z,0.04
2023-02-05T16:10:06.025Z,0.04
2023-02-05T16:12:06.370Z,0.04
2023-02-05T16:14:05.373Z,0.04
2023-02-05T16:16:06.106Z,0.04
2023-02-05T16:18:05.834Z,0.04
2023-02-05T16:20:05.724Z,0.03
2023-02-05T16:22:06.215Z,0.03
2023-02-05T16:24:05.626Z,0.03
2023-02-05T16:26:06.448Z,0.04
2023-02-05T16:28:05.959Z,0.04
2023-02-05T16:30:33.526Z,0.04
2023-02-05T16:32:08.827Z,0.04
2023-02-05T16:34:06.860Z,0.04
2023-02-05T16:36:06.458Z,0.04
2023-02-05T16:38:07.326Z,0.04
2023-02-05T16:40:06.345Z,0.04
2023-02-05T16:42:07.304Z,0.04
2023-02-05T16:44:06.238Z,0.04
2023-02-05T16:46:05.816Z,0.04
2023-02-05T16:48:06.107Z,0.04
2023-02-05T16:50:06.047Z,0.04
2023-02-05T16:52:06.854Z,0.04
2023-02-05T16:54:05.622Z,0.04
2023-02-05T16:56:05.125Z,0.04
2023-02-05T16:58:05.925Z,0.04
2023-02-05T17:00:06.286Z,0.04
2023-02-05T17:02:10.889Z,0.04
2023-02-05T17:04:06.043Z,0.04
2023-02-05T17:06:05.696Z,0.04
2023-02-05T17:08:05.816Z,0.04
2023-02-05T17:10:05.138Z,0.04
2023-02-05T17:12:06.468Z,0.04
2023-02-05T17:14:05.550Z,0.04
2023-02-05T17:16:06.226Z,0.04
2023-02-05T17:18:05.479Z,0.04
2023-02-05T17:20:07.047Z,0.04
2023-02-05T17:22:05.897Z,0.04
2023-02-05T17:24:05.628Z,0.04
2023-02-05T17:26:05.018Z,0.04
2023-02-05T17:28:05.906Z,0.04
2023-02-05T17:30:06.333Z,0.04
2023-02-05T17:32:06.453Z,0.04
2023-02-05T17:34:06.149Z,0.04
2023-02-05T17:36:05.763Z,0.04
2023-02-05T17:38:05.939Z,0.04
2023-02-05T17:40:05.410Z,0.04
2023-02-05T17:42:06.545Z,0.04
2023-02-05T17:44:05.643Z,0.04
2023-02-05T17:46:06.381Z,0.04
2023-02-05T17:48:05.957Z,0.04
2023-02-05T17:50:06.571Z,0.04
2023-02-05T17:52:06.530Z,0.04
2023-02-05T17:54:05.999Z,0.04
2023-02-05T17:56:05.618Z,0.04
2023-02-05T17:58:06.180Z,0.04
2023-02-05T18:00:05.405Z,0.04
2023-02-05T18:02:09.966Z,0.04
2023-02-05T18:04:06.204Z,0.04
2023-02-05T18:06:05.738Z,0.04
2023-02-05T18:08:06.314Z,0.04
2023-02-05T18:10:05.659Z,0.04
2023-02-05T18:12:06.709Z,0.04
2023-02-05T18:14:05.776Z,0.04
2023-02-05T18:16:06.227Z,0.04
2023-02-05T18:18:06.225Z,0.04
2023-02-05T18:20:06.171Z,0.03
2023-02-05T18:22:07.787Z,0.03
2023-02-05T18:24:14.315Z,0.03
2023-02-05T18:26:06.065Z,0.03
2023-02-05T18:28:05.898Z,0.03
2023-02-05T18:30:06.480Z,0.03
2023-02-05T18:32:07.274Z,0.04
2023-02-05T18:34:05.454Z,0.04
2023-02-05T18:36:05.941Z,0.04
2023-02-05T18:38:05.356Z,0.03
2023-02-05T18:40:05.855Z,0.03
2023-02-05T18:42:06.109Z,0.03
2023-02-05T18:44:06.081Z,0.03
2023-02-05T18:46:05.616Z,0.03
2023-02-05T18:48:06.148Z,0.03
2023-02-05T18:50:05.696Z,0.03
2023-02-05T18:52:06.545Z,0.03
2023-02-05T18:54:05.547Z,0.03
2023-02-05T18:56:06.237Z,0.03
2023-02-05T18:58:05.576Z,0.03
2023-02-05T19:00:05.864Z,0.03
2023-02-05T19:02:09.306Z,0.03
2023-02-05T19:04:06.081Z,0.03
2023-02-05T19:06:06.394Z,0.03
2023-02-05T19:08:06.600Z,0.04
2023-02-05T19:10:05.992Z,0.04
2023-02-05T19:12:06.204Z,0.04
2023-02-05T19:14:06.017Z,0.04
2023-02-05T19:16:05.861Z,0.04
2023-02-05T19:18:05.328Z,0.04
2023-02-05T19:20:06.028Z,0.04
2023-02-05T19:22:05.826Z,0.04
2023-02-05T19:24:05.818Z,0.04
2023-02-05T19:26:05.474Z,0.04
2023-02-05T19:28:06.039Z,0.04
2023-02-05T19:30:05.483Z,0.03
2023-02-05T19:32:07.688Z,0.04
2023-02-05T19:34:05.706Z,0.04
2023-02-05T19:36:06.288Z,0.04
2023-02-05T19:38:08.585Z,0.03
2023-02-05T19:40:06.136Z,0.03
2023-02-05T19:42:06.332Z,0.03
2023-02-05T19:44:06.127Z,0.04
2023-02-05T19:46:05.533Z,0.04
2023-02-05T19:48:06.334Z,0.04
2023-02-05T19:50:08.048Z,0.03
2023-02-05T19:52:06.632Z,0.03
2023-02-05T19:54:05.733Z,0.03
2023-02-05T19:56:05.377Z,0.03
2023-02-05T19:58:05.856Z,0.03
2023-02-05T20:00:06.085Z,0.04
2023-02-05T20:02:10.318Z,0.03
2023-02-05T20:04:05.756Z,0.03
2023-02-05T20:06:05.751Z,0.03
2023-02-05T20:08:05.687Z,0.03
2023-02-05T20:10:05.266Z,0.03
2023-02-05T20:12:06.489Z,0.03
2023-02-05T20:14:05.952Z,0.03
2023-02-05T20:16:06.082Z,0.03
2023-02-05T20:18:05.581Z,0.03
2023-02-05T20:20:32.936Z,0.03
2023-02-05T20:22:26.919Z,0.03
2023-02-05T20:24:05.858Z,0.03
2023-02-05T20:26:05.442Z,0.03
2023-02-05T20:28:06.350Z,0.03
2023-02-05T20:30:07.706Z,0.03
2023-02-05T20:32:06.555Z,0.03
2023-02-05T20:34:06.130Z,0.03
2023-02-05T20:36:06.419Z,0.03
2023-02-05T20:38:05.717Z,0.03
2023-02-05T20:40:05.134Z,0.03
2023-02-05T20:42:06.321Z,0.03
2023-02-05T20:44:05.390Z,0.03
2023-02-05T20:46:07.592Z,0.03
2023-02-05T20:48:05.812Z,0.03
2023-02-05T20:50:05.483Z,0.03
2023-02-05T20:52:08.051Z,0.03
2023-02-05T20:54:05.322Z,0.03
2023-02-05T20:56:06.163Z,0.03
2023-02-05T20:58:06.109Z,0.03
2023-02-05T21:00:06.691Z,0.03
2023-02-05T21:02:09.870Z,0.03
2023-02-05T21:04:05.506Z,0.03
2023-02-05T21:06:06.131Z,0.03
2023-02-05T21:08:05.453Z,0.03
2023-02-05T21:10:06.161Z,0.03
2023-02-05T21:12:07.131Z,0.03
2023-02-05T21:14:05.260Z,0.03
2023-02-05T21:16:06.037Z,0.03
2023-02-05T21:18:05.548Z,0.03
2023-02-05T21:20:06.137Z,0.1
2023-02-05T21:22:07.863Z,0.1
2023-02-05T21:24:05.947Z,0.1
2023-02-05T21:26:05.626Z,0.1
2023-02-05T21:28:06.439Z,0.1
2023-02-05T21:30:05.901Z,0.1
2023-02-05T21:32:06.379Z,0.1
2023-02-05T21:34:06.123Z,0.04
2023-02-05T21:36:05.816Z,0.04
2023-02-05T21:38:05.974Z,0.04
2023-02-05T21:40:18.876Z,0.04
2023-02-05T21:42:13.926Z,0.04
2023-02-05T21:44:05.744Z,0.04
2023-02-05T21:46:05.753Z,0.04
2023-02-05T21:48:05.922Z,0.04
2023-02-05T21:50:05.499Z,0.04
2023-02-05T21:52:06.371Z,0.04
2023-02-05T21:54:05.263Z,0.04
2023-02-05T21:56:07.336Z,0.04
2023-02-05T21:58:05.504Z,0.04
2023-02-05T22:00:05.668Z,0.04
2023-02-05T22:02:09.423Z,0.04
2023-02-05T22:04:05.595Z,0.04
2023-02-05T22:06:05.804Z,0.04
2023-02-05T22:08:05.998Z,0.04
2023-02-05T22:10:05.802Z,0.04
2023-02-05T22:12:06.569Z,0.04
2023-02-05T22:14:05.525Z,0.04
2023-02-05T22:16:06.009Z,0.04
2023-02-05T22:18:05.810Z,0.04
2023-02-05T22:20:06.082Z,0.04
2023-02-05T22:22:05.626Z,0.04
2023-02-05T22:24:06.355Z,0.04
2023-02-05T22:26:06.861Z,0.04
2023-02-05T22:28:06.798Z,0.04
2023-02-05T22:30:05.389Z,0.04
2023-02-05T22:32:06.206Z,0.04
2023-02-05T22:34:05.624Z,0.04
2023-02-05T22:36:05.954Z,0.04
2023-02-05T22:38:05.249Z,0.04
2023-02-05T22:40:05.448Z,0.11
2023-02-05T22:42:05.602Z,0.11
2023-02-05T22:44:05.785Z,0.11
2023-02-05T22:46:05.465Z,0.11
2023-02-05T22:48:05.906Z,0.05
2023-02-05T22:50:06.189Z,0.05
2023-02-05T22:52:05.582Z,0.05
2023-02-05T22:54:06.068Z,0.05
2023-02-05T22:56:05.477Z,0.05
2023-02-05T22:58:06.038Z,0.05
2023-02-05T23:00:10.771Z,0.05
2023-02-05T23:02:14.999Z,0.05
2023-02-05T23:04:05.670Z,0.05
2023-02-05T23:06:06.108Z,0.05
2023-02-05T23:08:05.306Z,0.05
2023-02-05T23:10:08.270Z,0.05
2023-02-05T23:12:05.620Z,0.05
2023-02-05T23:14:05.933Z,0.05
2023-02-05T23:16:05.224Z,0.05
2023-02-05T23:18:06.137Z,0.05
2023-02-05T23:20:05.468Z,0.05
2023-02-05T23:22:05.986Z,0.05
2023-02-05T23:24:05.251Z,0.05
2023-02-05T23:26:06.015Z,0.05
2023-02-05T23:28:05.761Z,0.05
2023-02-05T23:30:05.972Z,0.05
2023-02-05T23:32:06.352Z,0.05
2023-02-05T23:34:06.126Z,0.05
2023-02-05T23:36:05.544Z,0.05
2023-02-05T23:38:05.799Z,0.05
2023-02-05T23:40:05.276Z,0.05
2023-02-05T23:42:05.925Z,0.05
2023-02-05T23:44:06.301Z,0.05
2023-02-05T23:46:05.861Z,0.05
2023-02-05T23:48:06.554Z,0.05
2023-02-05T23:50:06.125Z,0.05
2023-02-05T23:52:06.182Z,0.05
2023-02-05T23:54:05.600Z,0.15
2023-02-05T23:56:06.244Z,0.15
2023-02-05T23:58:05.647Z,0.15
